sensor_id;sensor_type;location;lat;lon;timestamp;pressure;altitude;pressure_sealevel;temperature
79488;BMP180;68949;53.176;18.088;2024-02-26T00:00:12;99236.60;;;
79488;BMP180;68949;53.176;18.088;2024-02-26T00:02:59;99240.60;;;
79488;BMP180;68949;53.176;18.088;2024-02-26T00:05:26;99246.20;;;
79488;BMP180;68949;53.176;18.088;2024-02-26T00:07:53;99244.60;;;
79488;BMP180;68949;53.176;18.088;2024-02-26T00:10:20;99250.00;;;
79488;BMP180;68949;53.176;18.088;2024-02-26T00:12:48;99240.60;;;
79488;BMP180;68949;53.176;18.088;2024-02-26T00:15:14;99236.20;;;
79488;BMP180;68949;53.176;18.088;2024-02-26T00:17:42;99241.00;;;
79488;BMP180;68949;53.176;18.088;2024-02-26T00:20:10;99243.00;;;
79488;BMP180;68949;53.176;18.088;2024-02-26T00:22:37;99243.40;;;
79488;BMP180;68949;53.176;18.088;2024-02-26T00:25:05;99246.20;;;
79488;BMP180;68949;53.176;18.088;2024-02-26T00:27:32;99249.40;;;
79488;BMP180;68949;53.176;18.088;2024-02-26T00:29:58;99244.60;;;
79488;BMP180;68949;53.176;18.088;2024-02-26T00:32:25;99241.40;;;
79488;BMP180;68949;53.176;18.088;2024-02-26T00:34:52;99237.80;;;
79488;BMP180;68949;53.176;18.088;2024-02-26T00:37:18;99229.40;;;
79488;BMP180;68949;53.176;18.088;2024-02-26T00:39:45;99221.80;;;
79488;BMP180;68949;53.176;18.088;2024-02-26T00:42:13;99225.20;;;
79488;BMP180;68949;53.176;18.088;2024-02-26T00:44:40;99223.20;;;
79488;BMP180;68949;53.176;18.088;2024-02-26T00:47:07;99223.80;;;
79488;BMP180;68949;53.176;18.088;2024-02-26T00:49:33;99232.40;;;
79488;BMP180;68949;53.176;18.088;2024-02-26T00:52:00;99226.80;;;
79488;BMP180;68949;53.176;18.088;2024-02-26T00:54:27;99225.60;;;
79488;BMP180;68949;53.176;18.088;2024-02-26T00:56:54;99221.20;;;
79488;BMP180;68949;53.176;18.088;2024-02-26T00:59:20;99220.80;;;
79488;BMP180;68949;53.176;18.088;2024-02-26T01:01:47;99219.80;;;
79488;BMP180;68949;53.176;18.088;2024-02-26T01:04:15;99218.00;;;
79488;BMP180;68949;53.176;18.088;2024-02-26T01:06:42;99214.40;;;
79488;BMP180;68949;53.176;18.088;2024-02-26T01:09:08;99217.00;;;
79488;BMP180;68949;53.176;18.088;2024-02-26T01:11:37;99228.40;;;
79488;BMP180;68949;53.176;18.088;2024-02-26T01:14:04;99226.40;;;
79488;BMP180;68949;53.176;18.088;2024-02-26T01:16:31;99226.60;;;
79488;BMP180;68949;53.176;18.088;2024-02-26T01:18:58;99225.80;;;
79488;BMP180;68949;53.176;18.088;2024-02-26T01:21:25;99226.60;;;
79488;BMP180;68949;53.176;18.088;2024-02-26T01:23:53;99231.00;;;
79488;BMP180;68949;53.176;18.088;2024-02-26T01:26:20;99236.20;;;
79488;BMP180;68949;53.176;18.088;2024-02-26T01:28:48;99236.00;;;
79488;BMP180;68949;53.176;18.088;2024-02-26T01:31:15;99240.20;;;
79488;BMP180;68949;53.176;18.088;2024-02-26T01:33:42;99243.40;;;
79488;BMP180;68949;53.176;18.088;2024-02-26T01:36:08;99236.20;;;
79488;BMP180;68949;53.176;18.088;2024-02-26T01:38:35;99237.20;;;
79488;BMP180;68949;53.176;18.088;2024-02-26T01:41:02;99244.20;;;
79488;BMP180;68949;53.176;18.088;2024-02-26T01:43:29;99253.20;;;
79488;BMP180;68949;53.176;18.088;2024-02-26T01:45:56;99258.20;;;
79488;BMP180;68949;53.176;18.088;2024-02-26T01:48:22;99261.20;;;
79488;BMP180;68949;53.176;18.088;2024-02-26T01:50:50;99265.20;;;
79488;BMP180;68949;53.176;18.088;2024-02-26T01:53:18;99271.20;;;
79488;BMP180;68949;53.176;18.088;2024-02-26T01:55:45;99267.20;;;
79488;BMP180;68949;53.176;18.088;2024-02-26T01:58:13;99266.20;;;
79488;BMP180;68949;53.176;18.088;2024-02-26T02:00:40;99261.60;;;
79488;BMP180;68949;53.176;18.088;2024-02-26T02:03:07;99258.40;;;
79488;BMP180;68949;53.176;18.088;2024-02-26T02:05:36;99255.20;;;
79488;BMP180;68949;53.176;18.088;2024-02-26T02:08:10;99255.40;;;
79488;BMP180;68949;53.176;18.088;2024-02-26T02:10:43;99250.00;;;
79488;BMP180;68949;53.176;18.088;2024-02-26T02:13:10;99244.80;;;
79488;BMP180;68949;53.176;18.088;2024-02-26T02:15:37;99245.20;;;
79488;BMP180;68949;53.176;18.088;2024-02-26T02:18:05;99245.60;;;
79488;BMP180;68949;53.176;18.088;2024-02-26T02:20:35;99253.40;;;
79488;BMP180;68949;53.176;18.088;2024-02-26T02:23:03;99249.00;;;
79488;BMP180;68949;53.176;18.088;2024-02-26T02:25:30;99247.00;;;
79488;BMP180;68949;53.176;18.088;2024-02-26T02:27:57;99244.60;;;
79488;BMP180;68949;53.176;18.088;2024-02-26T02:30:27;99242.40;;;
79488;BMP180;68949;53.176;18.088;2024-02-26T02:32:55;99249.80;;;
79488;BMP180;68949;53.176;18.088;2024-02-26T02:35:24;99247.80;;;
79488;BMP180;68949;53.176;18.088;2024-02-26T02:37:52;99252.00;;;
79488;BMP180;68949;53.176;18.088;2024-02-26T02:40:19;99252.00;;;
79488;BMP180;68949;53.176;18.088;2024-02-26T02:42:46;99261.80;;;
79488;BMP180;68949;53.176;18.088;2024-02-26T02:45:13;99266.20;;;
79488;BMP180;68949;53.176;18.088;2024-02-26T02:47:39;99271.00;;;
79488;BMP180;68949;53.176;18.088;2024-02-26T02:50:06;99263.40;;;
79488;BMP180;68949;53.176;18.088;2024-02-26T02:52:33;99271.60;;;
79488;BMP180;68949;53.176;18.088;2024-02-26T02:55:01;99266.00;;;
79488;BMP180;68949;53.176;18.088;2024-02-26T02:57:29;99268.00;;;
79488;BMP180;68949;53.176;18.088;2024-02-26T02:59:56;99260.80;;;
79488;BMP180;68949;53.176;18.088;2024-02-26T03:02:23;99261.60;;;
79488;BMP180;68949;53.176;18.088;2024-02-26T03:04:54;99257.40;;;
79488;BMP180;68949;53.176;18.088;2024-02-26T03:07:20;99253.80;;;
79488;BMP180;68949;53.176;18.088;2024-02-26T03:09:47;99252.60;;;
79488;BMP180;68949;53.176;18.088;2024-02-26T03:12:14;99248.00;;;
79488;BMP180;68949;53.176;18.088;2024-02-26T03:14:41;99246.60;;;
79488;BMP180;68949;53.176;18.088;2024-02-26T03:17:07;99244.00;;;
79488;BMP180;68949;53.176;18.088;2024-02-26T03:19:34;99247.00;;;
79488;BMP180;68949;53.176;18.088;2024-02-26T03:22:01;99233.80;;;
79488;BMP180;68949;53.176;18.088;2024-02-26T03:24:30;99233.40;;;
79488;BMP180;68949;53.176;18.088;2024-02-26T03:26:57;99231.40;;;
79488;BMP180;68949;53.176;18.088;2024-02-26T03:29:23;99232.40;;;
79488;BMP180;68949;53.176;18.088;2024-02-26T03:31:50;99227.00;;;
79488;BMP180;68949;53.176;18.088;2024-02-26T03:34:17;99225.80;;;
79488;BMP180;68949;53.176;18.088;2024-02-26T03:36:45;99227.40;;;
79488;BMP180;68949;53.176;18.088;2024-02-26T03:39:12;99225.60;;;
79488;BMP180;68949;53.176;18.088;2024-02-26T03:41:38;99224.20;;;
79488;BMP180;68949;53.176;18.088;2024-02-26T03:44:05;99221.60;;;
79488;BMP180;68949;53.176;18.088;2024-02-26T03:46:32;99224.40;;;
79488;BMP180;68949;53.176;18.088;2024-02-26T03:48:58;99225.40;;;
79488;BMP180;68949;53.176;18.088;2024-02-26T03:51:25;99229.20;;;
79488;BMP180;68949;53.176;18.088;2024-02-26T03:53:53;99234.80;;;
79488;BMP180;68949;53.176;18.088;2024-02-26T03:56:20;99237.60;;;
79488;BMP180;68949;53.176;18.088;2024-02-26T03:58:47;99233.20;;;
79488;BMP180;68949;53.176;18.088;2024-02-26T04:01:13;99240.60;;;
79488;BMP180;68949;53.176;18.088;2024-02-26T04:03:40;99243.60;;;
79488;BMP180;68949;53.176;18.088;2024-02-26T04:06:11;99244.00;;;
79488;BMP180;68949;53.176;18.088;2024-02-26T04:08:41;99239.80;;;
79488;BMP180;68949;53.176;18.088;2024-02-26T04:11:08;99240.60;;;
79488;BMP180;68949;53.176;18.088;2024-02-26T04:13:34;99238.80;;;
79488;BMP180;68949;53.176;18.088;2024-02-26T04:16:01;99240.00;;;
79488;BMP180;68949;53.176;18.088;2024-02-26T04:18:29;99244.40;;;
79488;BMP180;68949;53.176;18.088;2024-02-26T04:20:56;99239.40;;;
79488;BMP180;68949;53.176;18.088;2024-02-26T04:23:24;99242.80;;;
79488;BMP180;68949;53.176;18.088;2024-02-26T04:25:51;99234.80;;;
79488;BMP180;68949;53.176;18.088;2024-02-26T04:28:19;99235.00;;;
79488;BMP180;68949;53.176;18.088;2024-02-26T04:30:52;99240.40;;;
79488;BMP180;68949;53.176;18.088;2024-02-26T04:33:20;99245.40;;;
79488;BMP180;68949;53.176;18.088;2024-02-26T04:35:47;99251.80;;;
79488;BMP180;68949;53.176;18.088;2024-02-26T04:38:13;99248.80;;;
79488;BMP180;68949;53.176;18.088;2024-02-26T04:40:40;99249.40;;;
79488;BMP180;68949;53.176;18.088;2024-02-26T04:43:07;99245.60;;;
79488;BMP180;68949;53.176;18.088;2024-02-26T04:45:34;99241.00;;;
79488;BMP180;68949;53.176;18.088;2024-02-26T04:48:02;99242.20;;;
79488;BMP180;68949;53.176;18.088;2024-02-26T04:50:28;99244.00;;;
79488;BMP180;68949;53.176;18.088;2024-02-26T04:52:55;99240.40;;;
79488;BMP180;68949;53.176;18.088;2024-02-26T04:55:22;99248.40;;;
79488;BMP180;68949;53.176;18.088;2024-02-26T04:57:48;99246.40;;;
79488;BMP180;68949;53.176;18.088;2024-02-26T05:00:15;99247.20;;;
79488;BMP180;68949;53.176;18.088;2024-02-26T05:02:42;99250.40;;;
79488;BMP180;68949;53.176;18.088;2024-02-26T05:05:09;99255.00;;;
79488;BMP180;68949;53.176;18.088;2024-02-26T05:07:46;99256.80;;;
79488;BMP180;68949;53.176;18.088;2024-02-26T05:10:13;99254.40;;;
79488;BMP180;68949;53.176;18.088;2024-02-26T05:12:40;99260.20;;;
79488;BMP180;68949;53.176;18.088;2024-02-26T05:15:09;99259.80;;;
79488;BMP180;68949;53.176;18.088;2024-02-26T05:17:36;99260.20;;;
79488;BMP180;68949;53.176;18.088;2024-02-26T05:20:04;99260.00;;;
79488;BMP180;68949;53.176;18.088;2024-02-26T05:22:30;99264.20;;;
79488;BMP180;68949;53.176;18.088;2024-02-26T05:24:57;99266.40;;;
79488;BMP180;68949;53.176;18.088;2024-02-26T05:27:24;99276.40;;;
79488;BMP180;68949;53.176;18.088;2024-02-26T05:29:51;99279.40;;;
79488;BMP180;68949;53.176;18.088;2024-02-26T05:32:18;99281.60;;;
79488;BMP180;68949;53.176;18.088;2024-02-26T05:34:45;99283.40;;;
79488;BMP180;68949;53.176;18.088;2024-02-26T05:37:11;99273.20;;;
79488;BMP180;68949;53.176;18.088;2024-02-26T05:39:38;99280.40;;;
79488;BMP180;68949;53.176;18.088;2024-02-26T05:42:05;99286.20;;;
79488;BMP180;68949;53.176;18.088;2024-02-26T05:44:32;99284.20;;;
79488;BMP180;68949;53.176;18.088;2024-02-26T05:46:58;99280.60;;;
79488;BMP180;68949;53.176;18.088;2024-02-26T05:49:25;99283.40;;;
79488;BMP180;68949;53.176;18.088;2024-02-26T05:51:52;99285.60;;;
79488;BMP180;68949;53.176;18.088;2024-02-26T05:54:19;99288.40;;;
79488;BMP180;68949;53.176;18.088;2024-02-26T05:56:46;99293.80;;;
79488;BMP180;68949;53.176;18.088;2024-02-26T05:59:12;99299.20;;;
79488;BMP180;68949;53.176;18.088;2024-02-26T06:01:42;99309.20;;;
79488;BMP180;68949;53.176;18.088;2024-02-26T06:04:08;99307.00;;;
79488;BMP180;68949;53.176;18.088;2024-02-26T06:06:35;99308.60;;;
79488;BMP180;68949;53.176;18.088;2024-02-26T06:09:01;99312.20;;;
79488;BMP180;68949;53.176;18.088;2024-02-26T06:11:29;99314.40;;;
79488;BMP180;68949;53.176;18.088;2024-02-26T06:13:56;99310.40;;;
79488;BMP180;68949;53.176;18.088;2024-02-26T06:16:23;99311.60;;;
79488;BMP180;68949;53.176;18.088;2024-02-26T06:18:50;99313.40;;;
79488;BMP180;68949;53.176;18.088;2024-02-26T06:21:17;99310.00;;;
79488;BMP180;68949;53.176;18.088;2024-02-26T06:23:44;99316.00;;;
79488;BMP180;68949;53.176;18.088;2024-02-26T06:26:10;99322.40;;;
79488;BMP180;68949;53.176;18.088;2024-02-26T06:28:37;99326.80;;;
79488;BMP180;68949;53.176;18.088;2024-02-26T06:31:07;99325.60;;;
79488;BMP180;68949;53.176;18.088;2024-02-26T06:33:34;99322.80;;;
79488;BMP180;68949;53.176;18.088;2024-02-26T06:36:01;99323.20;;;
79488;BMP180;68949;53.176;18.088;2024-02-26T06:38:27;99324.20;;;
79488;BMP180;68949;53.176;18.088;2024-02-26T06:40:54;99333.20;;;
79488;BMP180;68949;53.176;18.088;2024-02-26T06:43:21;99329.80;;;
79488;BMP180;68949;53.176;18.088;2024-02-26T06:45:47;99327.40;;;
79488;BMP180;68949;53.176;18.088;2024-02-26T06:48:14;99331.80;;;
79488;BMP180;68949;53.176;18.088;2024-02-26T06:50:41;99338.00;;;
79488;BMP180;68949;53.176;18.088;2024-02-26T06:53:08;99333.20;;;
79488;BMP180;68949;53.176;18.088;2024-02-26T06:55:35;99342.00;;;
79488;BMP180;68949;53.176;18.088;2024-02-26T06:58:01;99347.00;;;
79488;BMP180;68949;53.176;18.088;2024-02-26T07:00:28;99343.40;;;
79488;BMP180;68949;53.176;18.088;2024-02-26T07:02:55;99342.20;;;
79488;BMP180;68949;53.176;18.088;2024-02-26T07:05:21;99339.00;;;
79488;BMP180;68949;53.176;18.088;2024-02-26T07:07:48;99342.00;;;
79488;BMP180;68949;53.176;18.088;2024-02-26T07:10:15;99342.20;;;
79488;BMP180;68949;53.176;18.088;2024-02-26T07:12:42;99346.00;;;
79488;BMP180;68949;53.176;18.088;2024-02-26T07:15:10;99350.80;;;
79488;BMP180;68949;53.176;18.088;2024-02-26T07:17:36;99352.80;;;
79488;BMP180;68949;53.176;18.088;2024-02-26T07:20:04;99358.00;;;
79488;BMP180;68949;53.176;18.088;2024-02-26T07:22:31;99359.40;;;
79488;BMP180;68949;53.176;18.088;2024-02-26T07:24:58;99360.00;;;
79488;BMP180;68949;53.176;18.088;2024-02-26T07:27:25;99365.40;;;
79488;BMP180;68949;53.176;18.088;2024-02-26T07:29:52;99367.60;;;
79488;BMP180;68949;53.176;18.088;2024-02-26T07:32:18;99370.80;;;
79488;BMP180;68949;53.176;18.088;2024-02-26T07:34:45;99370.00;;;
79488;BMP180;68949;53.176;18.088;2024-02-26T07:37:12;99372.00;;;
79488;BMP180;68949;53.176;18.088;2024-02-26T07:39:39;99370.80;;;
79488;BMP180;68949;53.176;18.088;2024-02-26T07:42:05;99371.40;;;
79488;BMP180;68949;53.176;18.088;2024-02-26T07:44:33;99371.40;;;
79488;BMP180;68949;53.176;18.088;2024-02-26T07:47:01;99377.60;;;
79488;BMP180;68949;53.176;18.088;2024-02-26T07:49:28;99378.60;;;
79488;BMP180;68949;53.176;18.088;2024-02-26T07:51:55;99388.00;;;
79488;BMP180;68949;53.176;18.088;2024-02-26T07:54:24;99386.80;;;
79488;BMP180;68949;53.176;18.088;2024-02-26T07:56:51;99390.00;;;
79488;BMP180;68949;53.176;18.088;2024-02-26T07:59:18;99388.80;;;
79488;BMP180;68949;53.176;18.088;2024-02-26T08:01:52;99385.20;;;
79488;BMP180;68949;53.176;18.088;2024-02-26T08:04:19;99389.80;;;
79488;BMP180;68949;53.176;18.088;2024-02-26T08:06:45;99395.40;;;
79488;BMP180;68949;53.176;18.088;2024-02-26T08:09:12;99392.60;;;
79488;BMP180;68949;53.176;18.088;2024-02-26T08:11:39;99395.40;;;
79488;BMP180;68949;53.176;18.088;2024-02-26T08:14:06;99395.60;;;
79488;BMP180;68949;53.176;18.088;2024-02-26T08:16:33;99401.20;;;
79488;BMP180;68949;53.176;18.088;2024-02-26T08:18:59;99404.20;;;
79488;BMP180;68949;53.176;18.088;2024-02-26T08:21:26;99413.40;;;
79488;BMP180;68949;53.176;18.088;2024-02-26T08:23:53;99409.20;;;
79488;BMP180;68949;53.176;18.088;2024-02-26T08:26:22;99411.60;;;
79488;BMP180;68949;53.176;18.088;2024-02-26T08:28:50;99411.00;;;
79488;BMP180;68949;53.176;18.088;2024-02-26T08:31:18;99412.00;;;
79488;BMP180;68949;53.176;18.088;2024-02-26T08:33:45;99410.80;;;
79488;BMP180;68949;53.176;18.088;2024-02-26T08:36:11;99405.40;;;
79488;BMP180;68949;53.176;18.088;2024-02-26T08:38:38;99404.20;;;
79488;BMP180;68949;53.176;18.088;2024-02-26T08:41:05;99411.00;;;
79488;BMP180;68949;53.176;18.088;2024-02-26T08:43:32;99411.00;;;
79488;BMP180;68949;53.176;18.088;2024-02-26T08:45:59;99413.60;;;
79488;BMP180;68949;53.176;18.088;2024-02-26T08:48:26;99420.40;;;
79488;BMP180;68949;53.176;18.088;2024-02-26T08:50:53;99416.80;;;
79488;BMP180;68949;53.176;18.088;2024-02-26T08:53:20;99414.00;;;
79488;BMP180;68949;53.176;18.088;2024-02-26T08:55:47;99426.60;;;
79488;BMP180;68949;53.176;18.088;2024-02-26T08:58:14;99426.00;;;
79488;BMP180;68949;53.176;18.088;2024-02-26T09:00:41;99428.40;;;
79488;BMP180;68949;53.176;18.088;2024-02-26T09:03:08;99431.20;;;
79488;BMP180;68949;53.176;18.088;2024-02-26T09:05:35;99438.60;;;
79488;BMP180;68949;53.176;18.088;2024-02-26T09:08:02;99437.00;;;
79488;BMP180;68949;53.176;18.088;2024-02-26T09:10:31;99433.40;;;
79488;BMP180;68949;53.176;18.088;2024-02-26T09:12:59;99438.40;;;
79488;BMP180;68949;53.176;18.088;2024-02-26T09:15:28;99440.20;;;
79488;BMP180;68949;53.176;18.088;2024-02-26T09:17:55;99445.20;;;
79488;BMP180;68949;53.176;18.088;2024-02-26T09:20:22;99444.40;;;
79488;BMP180;68949;53.176;18.088;2024-02-26T09:22:50;99439.80;;;
79488;BMP180;68949;53.176;18.088;2024-02-26T09:25:17;99447.00;;;
79488;BMP180;68949;53.176;18.088;2024-02-26T09:27:44;99449.60;;;
79488;BMP180;68949;53.176;18.088;2024-02-26T09:30:13;99456.20;;;
79488;BMP180;68949;53.176;18.088;2024-02-26T09:32:40;99459.60;;;
79488;BMP180;68949;53.176;18.088;2024-02-26T09:35:07;99465.20;;;
79488;BMP180;68949;53.176;18.088;2024-02-26T09:37:34;99452.80;;;
79488;BMP180;68949;53.176;18.088;2024-02-26T09:40:04;99450.20;;;
79488;BMP180;68949;53.176;18.088;2024-02-26T09:42:43;99446.60;;;
79488;BMP180;68949;53.176;18.088;2024-02-26T09:45:18;99444.80;;;
79488;BMP180;68949;53.176;18.088;2024-02-26T09:47:47;99434.20;;;
79488;BMP180;68949;53.176;18.088;2024-02-26T09:50:17;99431.60;;;
79488;BMP180;68949;53.176;18.088;2024-02-26T09:52:45;99428.40;;;
79488;BMP180;68949;53.176;18.088;2024-02-26T09:55:12;99430.40;;;
79488;BMP180;68949;53.176;18.088;2024-02-26T09:57:44;99436.40;;;
79488;BMP180;68949;53.176;18.088;2024-02-26T10:00:18;99449.40;;;
79488;BMP180;68949;53.176;18.088;2024-02-26T10:02:51;99446.40;;;
79488;BMP180;68949;53.176;18.088;2024-02-26T10:05:18;99446.80;;;
79488;BMP180;68949;53.176;18.088;2024-02-26T10:07:46;99446.00;;;
79488;BMP180;68949;53.176;18.088;2024-02-26T10:10:15;99445.80;;;
79488;BMP180;68949;53.176;18.088;2024-02-26T10:12:43;99444.80;;;
79488;BMP180;68949;53.176;18.088;2024-02-26T10:15:10;99441.20;;;
79488;BMP180;68949;53.176;18.088;2024-02-26T10:17:39;99436.00;;;
79488;BMP180;68949;53.176;18.088;2024-02-26T10:20:18;99435.20;;;
79488;BMP180;68949;53.176;18.088;2024-02-26T10:22:48;99432.20;;;
79488;BMP180;68949;53.176;18.088;2024-02-26T10:25:15;99424.40;;;
79488;BMP180;68949;53.176;18.088;2024-02-26T10:27:46;99420.40;;;
79488;BMP180;68949;53.176;18.088;2024-02-26T10:32:46;99417.60;;;
79488;BMP180;68949;53.176;18.088;2024-02-26T10:35:16;99420.40;;;
79488;BMP180;68949;53.176;18.088;2024-02-26T10:37:44;99423.00;;;
79488;BMP180;68949;53.176;18.088;2024-02-26T10:40:13;99410.80;;;
79488;BMP180;68949;53.176;18.088;2024-02-26T10:42:42;99405.20;;;
79488;BMP180;68949;53.176;18.088;2024-02-26T10:45:10;99395.60;;;
79488;BMP180;68949;53.176;18.088;2024-02-26T10:47:36;99401.40;;;
79488;BMP180;68949;53.176;18.088;2024-02-26T10:50:06;99400.80;;;
79488;BMP180;68949;53.176;18.088;2024-02-26T10:52:36;99388.00;;;
79488;BMP180;68949;53.176;18.088;2024-02-26T10:55:05;99392.20;;;
79488;BMP180;68949;53.176;18.088;2024-02-26T10:57:41;99398.80;;;
79488;BMP180;68949;53.176;18.088;2024-02-26T11:00:13;99396.20;;;
79488;BMP180;68949;53.176;18.088;2024-02-26T11:02:48;99395.60;;;
79488;BMP180;68949;53.176;18.088;2024-02-26T11:05:16;99401.40;;;
79488;BMP180;68949;53.176;18.088;2024-02-26T11:07:44;99404.20;;;
79488;BMP180;68949;53.176;18.088;2024-02-26T11:10:16;99404.60;;;
79488;BMP180;68949;53.176;18.088;2024-02-26T11:12:45;99394.40;;;
79488;BMP180;68949;53.176;18.088;2024-02-26T11:15:14;99388.20;;;
79488;BMP180;68949;53.176;18.088;2024-02-26T11:17:42;99394.60;;;
79488;BMP180;68949;53.176;18.088;2024-02-26T11:20:11;99389.40;;;
79488;BMP180;68949;53.176;18.088;2024-02-26T11:22:40;99387.80;;;
79488;BMP180;68949;53.176;18.088;2024-02-26T11:25:07;99388.00;;;
79488;BMP180;68949;53.176;18.088;2024-02-26T11:27:42;99390.80;;;
79488;BMP180;68949;53.176;18.088;2024-02-26T11:30:13;99392.60;;;
79488;BMP180;68949;53.176;18.088;2024-02-26T11:32:47;99396.20;;;
79488;BMP180;68949;53.176;18.088;2024-02-26T11:35:16;99392.00;;;
79488;BMP180;68949;53.176;18.088;2024-02-26T11:37:56;99390.60;;;
79488;BMP180;68949;53.176;18.088;2024-02-26T11:40:26;99384.00;;;
79488;BMP180;68949;53.176;18.088;2024-02-26T11:42:54;99387.60;;;
79488;BMP180;68949;53.176;18.088;2024-02-26T11:48:17;99398.80;;;
79488;BMP180;68949;53.176;18.088;2024-02-26T11:50:52;99400.20;;;
79488;BMP180;68949;53.176;18.088;2024-02-26T11:53:32;99403.80;;;
79488;BMP180;68949;53.176;18.088;2024-02-26T11:58:43;99414.80;;;
79488;BMP180;68949;53.176;18.088;2024-02-26T12:01:42;99406.00;;;
79488;BMP180;68949;53.176;18.088;2024-02-26T12:04:27;99406.40;;;
79488;BMP180;68949;53.176;18.088;2024-02-26T12:07:02;99414.60;;;
79488;BMP180;68949;53.176;18.088;2024-02-26T12:09:40;99396.80;;;
79488;BMP180;68949;53.176;18.088;2024-02-26T12:12:10;99398.60;;;
79488;BMP180;68949;53.176;18.088;2024-02-26T12:14:52;99409.80;;;
79488;BMP180;68949;53.176;18.088;2024-02-26T12:17:23;99403.80;;;
79488;BMP180;68949;53.176;18.088;2024-02-26T12:19:52;99399.60;;;
79488;BMP180;68949;53.176;18.088;2024-02-26T12:22:21;99392.60;;;
79488;BMP180;68949;53.176;18.088;2024-02-26T12:24:47;99404.00;;;
79488;BMP180;68949;53.176;18.088;2024-02-26T12:27:14;99401.60;;;
79488;BMP180;68949;53.176;18.088;2024-02-26T12:29:41;99407.60;;;
79488;BMP180;68949;53.176;18.088;2024-02-26T12:32:08;99401.20;;;
79488;BMP180;68949;53.176;18.088;2024-02-26T12:34:35;99402.80;;;
79488;BMP180;68949;53.176;18.088;2024-02-26T12:37:02;99401.00;;;
79488;BMP180;68949;53.176;18.088;2024-02-26T12:39:30;99396.00;;;
79488;BMP180;68949;53.176;18.088;2024-02-26T12:41:58;99394.80;;;
79488;BMP180;68949;53.176;18.088;2024-02-26T12:44:26;99400.00;;;
79488;BMP180;68949;53.176;18.088;2024-02-26T12:47:03;99394.00;;;
79488;BMP180;68949;53.176;18.088;2024-02-26T12:49:31;99388.60;;;
79488;BMP180;68949;53.176;18.088;2024-02-26T12:51:59;99384.00;;;
79488;BMP180;68949;53.176;18.088;2024-02-26T12:54:32;99383.00;;;
79488;BMP180;68949;53.176;18.088;2024-02-26T12:57:03;99381.60;;;
79488;BMP180;68949;53.176;18.088;2024-02-26T12:59:31;99393.20;;;
79488;BMP180;68949;53.176;18.088;2024-02-26T13:01:58;99401.00;;;
79488;BMP180;68949;53.176;18.088;2024-02-26T13:04:29;99404.40;;;
79488;BMP180;68949;53.176;18.088;2024-02-26T13:06:57;99404.40;;;
79488;BMP180;68949;53.176;18.088;2024-02-26T13:09:38;99396.20;;;
79488;BMP180;68949;53.176;18.088;2024-02-26T13:12:07;99396.00;;;
79488;BMP180;68949;53.176;18.088;2024-02-26T13:14:34;99401.00;;;
79488;BMP180;68949;53.176;18.088;2024-02-26T13:17:03;99393.80;;;
79488;BMP180;68949;53.176;18.088;2024-02-26T13:19:29;99400.40;;;
79488;BMP180;68949;53.176;18.088;2024-02-26T13:22:06;99394.00;;;
79488;BMP180;68949;53.176;18.088;2024-02-26T13:24:41;99395.20;;;
79488;BMP180;68949;53.176;18.088;2024-02-26T13:27:08;99399.80;;;
79488;BMP180;68949;53.176;18.088;2024-02-26T13:29:35;99395.60;;;
79488;BMP180;68949;53.176;18.088;2024-02-26T13:32:03;99399.80;;;
79488;BMP180;68949;53.176;18.088;2024-02-26T13:34:30;99403.40;;;
79488;BMP180;68949;53.176;18.088;2024-02-26T13:36:57;99404.60;;;
79488;BMP180;68949;53.176;18.088;2024-02-26T13:39:26;99406.60;;;
79488;BMP180;68949;53.176;18.088;2024-02-26T13:41:54;99408.40;;;
79488;BMP180;68949;53.176;18.088;2024-02-26T13:44:22;99414.20;;;
79488;BMP180;68949;53.176;18.088;2024-02-26T13:46:50;99420.60;;;
79488;BMP180;68949;53.176;18.088;2024-02-26T13:49:17;99415.00;;;
79488;BMP180;68949;53.176;18.088;2024-02-26T13:51:45;99411.80;;;
79488;BMP180;68949;53.176;18.088;2024-02-26T13:54:12;99409.00;;;
79488;BMP180;68949;53.176;18.088;2024-02-26T13:56:41;99405.40;;;
79488;BMP180;68949;53.176;18.088;2024-02-26T13:59:08;99402.80;;;
79488;BMP180;68949;53.176;18.088;2024-02-26T14:01:37;99410.80;;;
79488;BMP180;68949;53.176;18.088;2024-02-26T14:04:04;99403.00;;;
79488;BMP180;68949;53.176;18.088;2024-02-26T14:06:31;99406.20;;;
79488;BMP180;68949;53.176;18.088;2024-02-26T14:09:00;99401.20;;;
79488;BMP180;68949;53.176;18.088;2024-02-26T14:11:27;99409.80;;;
79488;BMP180;68949;53.176;18.088;2024-02-26T14:13:59;99407.40;;;
79488;BMP180;68949;53.176;18.088;2024-02-26T14:16:26;99404.00;;;
79488;BMP180;68949;53.176;18.088;2024-02-26T14:18:53;99401.40;;;
79488;BMP180;68949;53.176;18.088;2024-02-26T14:21:20;99411.40;;;
79488;BMP180;68949;53.176;18.088;2024-02-26T14:23:48;99416.80;;;
79488;BMP180;68949;53.176;18.088;2024-02-26T14:26:17;99412.40;;;
79488;BMP180;68949;53.176;18.088;2024-02-26T14:28:43;99414.40;;;
79488;BMP180;68949;53.176;18.088;2024-02-26T14:31:11;99415.60;;;
79488;BMP180;68949;53.176;18.088;2024-02-26T14:33:38;99416.20;;;
79488;BMP180;68949;53.176;18.088;2024-02-26T14:36:07;99413.80;;;
79488;BMP180;68949;53.176;18.088;2024-02-26T14:38:35;99418.60;;;
79488;BMP180;68949;53.176;18.088;2024-02-26T14:41:03;99419.80;;;
79488;BMP180;68949;53.176;18.088;2024-02-26T14:43:30;99423.00;;;
79488;BMP180;68949;53.176;18.088;2024-02-26T14:45:59;99423.80;;;
79488;BMP180;68949;53.176;18.088;2024-02-26T14:48:26;99426.20;;;
79488;BMP180;68949;53.176;18.088;2024-02-26T14:50:53;99430.80;;;
79488;BMP180;68949;53.176;18.088;2024-02-26T14:53:20;99433.60;;;
79488;BMP180;68949;53.176;18.088;2024-02-26T14:55:47;99430.20;;;
79488;BMP180;68949;53.176;18.088;2024-02-26T14:58:15;99434.40;;;
79488;BMP180;68949;53.176;18.088;2024-02-26T15:00:42;99442.20;;;
79488;BMP180;68949;53.176;18.088;2024-02-26T15:03:09;99442.00;;;
79488;BMP180;68949;53.176;18.088;2024-02-26T15:05:39;99443.80;;;
79488;BMP180;68949;53.176;18.088;2024-02-26T15:08:06;99448.60;;;
79488;BMP180;68949;53.176;18.088;2024-02-26T15:10:35;99452.60;;;
79488;BMP180;68949;53.176;18.088;2024-02-26T15:13:02;99461.00;;;